Nearby METAR Reports

 

EICK - Cork Airport, Ireland
Distance from station: W 140km
Updated: 05/03/2024 12:30
Partly cloudy
Partly cloudy
 Wind from WSW
Wind: WSW 19 km/h
Temperature: 11°C
Dew Point: 4°C
Humidity: 62%
Barometer: 1012 hPa
Clouds: Partly cloudy
Visibility: 10 km
Cloud details: Partly cloudy 732 m
2024/03/05 12:30 EICK 051230Z 24010KT 9999 SCT024 11/04 Q1012 NOSIG
EIDW - Dublin Airport, Ireland
Distance from station: N 140km
Updated: 05/03/2024 12:30
Mostly cloudy
Mostly cloudy
 Wind from WSW
Wind: WSW 19 km/h, Gust: 37 km/h
Temperature: 9°C
Wind Chill: 6°C
Dew Point: 3°C
Humidity: 66%
Barometer: 1011 hPa
Clouds: Mostly cloudy
Visibility: 10 km
Cloud details: Few Clouds 366 m
Mostly cloudy 3658 m
2024/03/05 12:30 EIDW 051230Z 24010G20KT 180V290 9999 FEW012 BKN120 09/03 Q1011 NOSIG
 
EINN - Shannon Airport, Ireland
Distance from station: W 135km
Updated: 05/03/2024 12:30
Few Clouds
Few Clouds
 Wind from SW
Wind: SW 19 km/h
Temperature: 11°C
Dew Point: 4°C
Humidity: 62%
Barometer: 1011 hPa
Clouds: Few Clouds
Visibility: 10 km
Cloud details: Few Clouds 792 m
2024/03/05 12:30 EINN 051230Z 23010KT 9999 FEW026 11/04 Q1011 NOSIG
EIKN - Connaught Airport, Ireland
Distance from station: NW 200km
Updated: 05/03/2024 12:30
Mostly cloudy
Mostly cloudy
 Wind from WSW
Wind: WSW 15 km/h
Temperature: 8°C
Wind Chill: 5°C
Dew Point: 4°C
Humidity: 76%
Barometer: 1009 hPa
Clouds: Mostly cloudy
Visibility: 10 km
Cloud details: Mostly cloudy 975 m
2024/03/05 12:30 EIKN 051230Z 24008KT 190V260 9999 BKN032 08/04 Q1009 NOSIG
 
EIWF - Waterford Airport, Ireland
Distance from station: SE 14km
Updated: 05/03/2024 12:30
Few Clouds
Few Clouds
 Wind from SW
Wind: SW 19 km/h
Temperature: 10°C
Wind Chill: 7°C
Dew Point: 4°C
Humidity: 67%
Barometer: 1013 hPa
Clouds: Few Clouds
Visibility: 10 km
Cloud details: Few Clouds 1067 m
2024/03/05 12:30 EIWF 051230Z 22010KT 9999 FEW035 10/04 Q1013